Airfield :
LOGIN :

Register | Disclaimer

   EN    FR    IT 

 










Legend :    VFR   Marginal VFR   IFR   Intensive IFR   Very Intensive IFR
Visi :
Ceiling :
>= 8 km
>= 3000ft
5 to 8 km
1000 to 3000 ft
1500m to 5 km
500 to 1000 ft
800 to 1500m
200 to 500 ft
< 800m
< 200 ft
Symbols :   Thunderstorms  Fog  Heavy snow  Heavy precipitations  Wind > 20 kt
SIGMETs :     Misc.  Thunderstorms  Icing  Turbulence  Mountain Waves  Volcanic Ashes







- Airport Elevation : 74 ft
- IATA code : LRH
- Download approach charts


LFBH - La Rochelle Ile de Ré

CURRENT METAR :
  • 192300Z AUTO 30011KT 9999 BKN011 OVC027 17/15 Q1014 NOSIG

EXPIRED METARs :
  • 192230Z AUTO 29011KT 9999 BKN012 OVC023 17/15 Q1014 NOSIG
  • 192200Z AUTO 26010KT 9999 BKN010 BKN017 OVC028 18/16 Q1014 NOSIG
  • 192130Z AUTO 25010KT 9999 BKN010 OVC032 18/15 Q1014 NOSIG
  • 192100Z AUTO 25011KT 9999 BKN010 BKN017 OVC037 18/15 Q1014 BECMG 31010KT
  • 192030Z AUTO 24012KT 9999 BKN012 OVC021 18/15 Q1014 BECMG 31010KT

TAF AMD TAF LFBH
Valid from the 19 at 21:00 until the 20 at 18:00 UTC


192108Z 1921/2018 27010KT 9999 SCT015 BKN040
TEMPO 1921/2006 BKN010
BECMG 2007/2009 CAVOK
ATIS : +33 5 46 00 13 92
No reported NOTAMs for that airfield.



MET'MAP, your aeronautical weather chart ! - Copyright ORBIFLY December 2007 - Disclaimer

ORBIFLY MET'MAP TEAM :

Programming & Development : Alexandra Zaïnal
Concept & Development : Baudouin d'Aumeries
Co-Development & Prog : Marc-Olivier Méhu
Technical & hardware support : Manuel Goepfert

Contact : metmap@orbifly.com




SOURCES & CREDITS :

   NOAA